Record high temperature 100.8°F Record low temperature -75.5°F Record high gust 121.0 mph Record high average 61.8 mph Record daily rain 2.61 in. Record low windchill -106.6°F Record high barometer 31.889 in. Record low barometer 23.642 in.
Daily high pressure 30.109 in. Daily low pressure 29.960 in. Daily low windchill 59.5°F Daily high heat index 91.9°F Daily high gust speed 18.5 mph SSW Daily high average speed 12.2 mph SSW
Weather Data
LAST READING AT TIME: 21:20 PM DATE: July 27 2015, time of next update: 09:30 pm
Current WeatherNight time/Dry Current Temperature 75.1°F (23.9°C) (Heat Index 75.2°F ), Apparent temp 77.1°F
Maximum Temperature (since midnight)92.5°F at: 5:38 PM Minimum Temperature (since midnight)59.5°F at: 6:08 AM
Average windspeed (ten minute)0.0 mph Wind Direction (ten minute)S (180°)
Heat Index 75.2°F Maximum Gust (last hour)6.5 mph at: 8:36 PM
Maximum Gust (since midnight)18.5 mph at: 1:21 PM Maximum 1 minute average (since midnight)12.2 mph at: 1:26 PM
Rainfall (last hour)0.00 in. (0.0 mm) Rainfall (since midnight)0.00 in. (0.0 mm) ---
Rainfall This month 2.42 in. (61.5 mm) Rainfall To date this year 14.69 in. (373.2 mm)
Maximum rain per minute (last hour)0.00 in/min Maximum rain per hour (last 6 hours)0.00 in/hour
Yesterdays rainfall 0.00 in DewPoint 54.1°F (Wet Bulb :63.0°F )
Humidity 48 %, Humidex 79.4°F Barometer corrected to msl30.002 in. (1016.0 hPa)
Pressure change +0.02 in. (last hour) Trend (last hour)RISING SLOWLY
Pressure change (last 12 hours)-0.07 in Pressure change (last 6 hours)+0.01 in

This page is updated from recent data collected by a DAVIS WMII weather station Use the Reload or Refresh facility on your browser to retrieve the latest data.


Click here for the last 24 hour graph
Click here for the last 48 hour graph
Click here for the last 72 hour graph
Click here for the month to date graph


Weather report/warning/Metars

COLORADO SPRINGS MUNI, CO, United States (KCOS) 38-49N 104-43W 1856M
Jul 27, 2015 - 10:54 PM EDT / 2015.07.28 0254 UTC
Wind: from the SSW (200 degrees) at 6 MPH (5 KT):0
Visibility: 10 mile(s):0
Sky conditions: mostly clear
Temperature: 77.0 F (25.0 C)
Dew Point: 46.9 F (8.3 C)
Relative Humidity: 34%
Pressure (altimeter): 30 in. Hg (1015 hPa)
Pressure tendency: 0.04 inches (1.3 hPa) higher than three hours ago
ob: KCOS 280254Z 20005KT 10SM FEW080 FEW120 FEW200 25/08 A3000 RMK AO2 SLP060 T02500083 53013
cycle: 3
Air Force Academy, CO, United States (KAFF) 38-58N 104-49W 1999M
Jul 27, 2015 - 10:58 PM EDT / 2015.07.28 0258 UTC
Wind: Calm:0
Visibility: 10 mile(s):0
Sky conditions: clear
Temperature: 75.0 F (23.9 C)
Dew Point: 46.2 F (7.9 C)
Relative Humidity: 35%
Pressure (altimeter): 30.02 in. Hg (1016 hPa)
Pressure tendency: 0.05 inches (1.6 hPa) higher than three hours ago
ob: KAFF 280258Z AUTO 00000KT 10SM CLR 24/08 A3002 RMK AO2 SLP063 T02390079 52016
cycle: 3
Fort Carson, CO, United States (KFCS) 38-42N 104-46W 1789M
Jul 27, 2015 - 10:58 PM EDT / 2015.07.28 0258 UTC
Wind: from the W (260 degrees) at 8 MPH (7 KT):0
Visibility: 10 mile(s):0
Sky conditions: clear
Temperature: 77.9 F (25.5 C)
Dew Point: 48.6 F (9.2 C)
Relative Humidity: 35%
Pressure (altimeter): 29.96 in. Hg (1014 hPa)
Pressure tendency: 0.03 inches (1.0 hPa) higher than three hours ago
ob: KFCS 280258Z AUTO 26007KT 10SM CLR 26/09 A2996 RMK AO2 SLP078 60000 T02550092 53010
cycle: 3



The data is logged at two minute intervals, but there is data recorded every minute. Best viewed in 800 x 600 and True colour.

Use the RELOAD facility on your browser to retrieve the latest data.

Click here for a daily update of the averages/extremes to date for the month
Created by "Weather Display" software version 10.37R Build 78 at this start time/date 03:19 am 7/21/2015